Terminal Aerodrome Forecast
Issued by NWS Lake Charles, LA

Current Version | Previous Version | Text Only | Print | Product List | Glossary On
Versions: 1 2 3 4 5 6 7 8 9 10 11 12 13 14 15 16
282
FTUS44 KLCH 241226 AAA
TAFLFT
TAF AMD
KLFT 241226Z 2412/2512 00000KT P6SM SKC
     FM241500 15007KT P6SM SKC
     FM241800 18009KT P6SM FEW050=

USA.gov is the U.S. government's official web portal to all federal, state and local government web resources and services.